createdAt,value
2022-10-23T00:00:52.465Z,3.17
2022-10-23T00:03:19.458Z,2.78
2022-10-23T00:05:46.440Z,2.60
2022-10-23T00:08:13.442Z,2.60
2022-10-23T00:10:41.959Z,2.22
2022-10-23T00:13:09.237Z,2.58
2022-10-23T00:15:37.226Z,2.20
2022-10-23T00:18:04.491Z,2.38
2022-10-23T00:20:31.544Z,2.47
2022-10-23T00:22:58.570Z,2.83
2022-10-23T00:25:25.597Z,2.50
2022-10-23T00:27:52.650Z,2.40
2022-10-23T00:30:19.650Z,2.22
2022-10-23T00:32:46.650Z,2.28
2022-10-23T00:35:13.726Z,2.58
2022-10-23T00:37:40.966Z,2.63
2022-10-23T00:40:08.548Z,2.72
2022-10-23T00:42:35.564Z,2.42
2022-10-23T00:45:10.246Z,2.75
2022-10-23T00:47:37.317Z,1.98
2022-10-23T00:50:05.385Z,2.20
2022-10-23T00:52:33.028Z,2.58
2022-10-23T00:55:00.084Z,2.40
2022-10-23T00:57:30.067Z,2.53
2022-10-23T00:59:57.280Z,2.85
2022-10-23T01:02:24.437Z,2.95
2022-10-23T01:04:51.850Z,3.10
2022-10-23T01:07:27.402Z,2.50
2022-10-23T01:10:14.631Z,2.72
2022-10-23T01:12:44.673Z,3.03
2022-10-23T01:15:11.655Z,2.30
2022-10-23T01:18:02.064Z,2.47
2022-10-23T01:20:36.161Z,2.83
2022-10-23T01:23:12.158Z,3.00
2022-10-23T01:26:02.651Z,2.00
2022-10-23T01:28:31.632Z,2.30
2022-10-23T01:31:00.289Z,2.05
2022-10-23T01:33:30.446Z,2.35
2022-10-23T01:36:08.263Z,2.05
2022-10-23T01:38:57.097Z,2.30
2022-10-23T01:41:28.897Z,1.85
2022-10-23T01:44:01.758Z,2.15
2022-10-23T01:46:29.044Z,2.30
2022-10-23T01:48:57.461Z,1.88
2022-10-23T01:51:26.366Z,2.00
2022-10-23T01:53:56.399Z,2.28
2022-10-23T01:56:26.358Z,2.30
2022-10-23T01:58:54.183Z,2.00
2022-10-23T02:01:23.149Z,2.40
2022-10-23T02:03:50.681Z,1.90
2022-10-23T02:06:17.783Z,2.03
2022-10-23T02:08:44.963Z,2.63
2022-10-23T02:11:14.251Z,1.92
2022-10-23T02:13:59.805Z,2.22
2022-10-23T02:16:33.244Z,2.45
2022-10-23T02:19:18.661Z,1.83
2022-10-23T02:21:51.735Z,2.85
2022-10-23T02:24:21.157Z,2.23
2022-10-23T02:26:59.831Z,1.52
2022-10-23T02:29:29.765Z,2.10
2022-10-23T02:31:56.790Z,1.92
2022-10-23T02:34:23.966Z,2.33
2022-10-23T02:36:51.259Z,1.70
2022-10-23T02:39:18.306Z,1.83
2022-10-23T02:41:58.472Z,2.10
2022-10-23T02:44:37.658Z,1.63
2022-10-23T02:47:23.245Z,1.90
2022-10-23T02:50:08.834Z,2.00
2022-10-23T02:52:35.816Z,1.70
2022-10-23T02:55:05.610Z,1.92
2022-10-23T02:57:34.935Z,1.92
2022-10-23T03:00:04.754Z,2.63
2022-10-23T03:02:37.838Z,1.90
2022-10-23T03:05:07.841Z,1.97
2022-10-23T03:07:34.776Z,1.55
2022-10-23T03:10:01.326Z,1.63
2022-10-23T03:12:28.015Z,1.50
2022-10-23T03:14:54.643Z,1.35
2022-10-23T03:17:21.287Z,1.58
2022-10-23T03:19:47.843Z,1.55
2022-10-23T03:22:14.445Z,1.63
2022-10-23T03:24:41.006Z,1.48
2022-10-23T03:27:07.644Z,1.90
2022-10-23T03:29:34.352Z,1.67
2022-10-23T03:32:00.954Z,1.60
2022-10-23T03:34:27.572Z,2.05
2022-10-23T03:36:54.313Z,2.15
2022-10-23T03:39:21.020Z,2.10
2022-10-23T03:41:47.642Z,2.13
2022-10-23T03:44:14.256Z,2.00
2022-10-23T03:46:40.903Z,1.98
2022-10-23T03:49:07.540Z,1.60
2022-10-23T03:51:34.616Z,1.73
2022-10-23T03:54:01.198Z,1.48
2022-10-23T03:56:27.976Z,1.75
2022-10-23T03:58:54.631Z,2.10
2022-10-23T04:01:21.295Z,1.92
2022-10-23T04:03:47.943Z,1.92
2022-10-23T04:06:14.525Z,1.70
2022-10-23T04:08:43.941Z,2.10
2022-10-23T04:11:10.893Z,2.17
2022-10-23T04:13:37.552Z,1.83
2022-10-23T04:16:04.278Z,1.63
2022-10-23T04:18:30.845Z,1.55
2022-10-23T04:20:57.423Z,1.23
2022-10-23T04:23:24.113Z,1.65
2022-10-23T04:25:50.688Z,1.63
2022-10-23T04:28:17.261Z,1.90
2022-10-23T04:30:43.893Z,1.55
2022-10-23T04:33:10.470Z,1.67
2022-10-23T04:35:37.073Z,1.75
2022-10-23T04:38:03.776Z,1.65
2022-10-23T04:40:30.378Z,1.35
2022-10-23T04:42:57.024Z,1.60
2022-10-23T04:45:23.655Z,1.35
2022-10-23T04:47:50.404Z,2.00
2022-10-23T04:50:17.263Z,1.80
2022-10-23T04:52:44.184Z,1.67
2022-10-23T04:55:11.672Z,1.42
2022-10-23T04:57:38.361Z,1.88
2022-10-23T05:00:07.453Z,1.30
2022-10-23T05:02:34.159Z,1.42
2022-10-23T05:05:00.925Z,1.60
2022-10-23T05:07:27.506Z,1.70
2022-10-23T05:09:54.195Z,1.98
2022-10-23T05:12:20.898Z,2.20
2022-10-23T05:14:47.454Z,1.60
2022-10-23T05:17:25.510Z,2.10
2022-10-23T05:19:57.039Z,1.85
2022-10-23T05:22:26.772Z,1.90
2022-10-23T05:24:54.357Z,2.17
2022-10-23T05:27:21.030Z,1.80
2022-10-23T05:29:47.678Z,1.50
2022-10-23T05:32:16.094Z,1.60
2022-10-23T05:34:43.354Z,1.95
2022-10-23T05:37:13.298Z,1.55
2022-10-23T05:39:40.067Z,1.35
2022-10-23T05:42:07.557Z,1.55
2022-10-23T05:44:35.307Z,1.75
2022-10-23T05:47:02.321Z,1.80
2022-10-23T05:49:29.334Z,2.28
2022-10-23T05:51:56.407Z,1.38
2022-10-23T05:54:23.392Z,1.50
2022-10-23T05:56:51.746Z,1.80
2022-10-23T05:59:21.986Z,1.40
2022-10-23T06:01:50.442Z,1.50
2022-10-23T06:04:17.533Z,1.30
2022-10-23T06:06:46.326Z,1.05
2022-10-23T06:09:13.422Z,1.10
2022-10-23T06:11:40.824Z,1.42
2022-10-23T06:14:07.859Z,1.55
2022-10-23T06:16:35.036Z,1.42
2022-10-23T06:19:02.120Z,1.42
2022-10-23T06:21:29.128Z,1.13
2022-10-23T06:23:56.447Z,1.65
2022-10-23T06:26:23.863Z,1.10
2022-10-23T06:28:50.917Z,1.67
2022-10-23T06:31:19.556Z,2.10
2022-10-23T06:33:46.594Z,1.80
2022-10-23T06:36:13.700Z,1.58
2022-10-23T06:38:41.041Z,1.30
2022-10-23T06:41:15.172Z,1.40
2022-10-23T06:43:42.215Z,2.03
2022-10-23T06:46:10.010Z,1.70
2022-10-23T06:48:37.258Z,1.50
2022-10-23T06:51:08.469Z,1.88
2022-10-23T06:53:35.881Z,1.50
2022-10-23T06:56:03.681Z,1.83
2022-10-23T06:58:30.938Z,1.33
2022-10-23T07:01:01.692Z,1.40
2022-10-23T07:03:28.887Z,1.65
2022-10-23T07:05:56.000Z,1.50
2022-10-23T07:08:23.777Z,1.60
2022-10-23T07:10:50.781Z,1.58
2022-10-23T07:13:17.850Z,1.90
2022-10-23T07:15:44.944Z,1.73
2022-10-23T07:18:14.607Z,1.92
2022-10-23T07:20:41.974Z,1.52
2022-10-23T07:23:10.019Z,1.40
2022-10-23T07:25:37.272Z,1.45
2022-10-23T07:28:04.928Z,1.75
2022-10-23T07:30:31.971Z,1.17
2022-10-23T07:32:59.000Z,1.63
2022-10-23T07:35:26.003Z,1.50
2022-10-23T07:37:53.052Z,1.38
2022-10-23T07:40:20.109Z,1.92
2022-10-23T07:42:47.145Z,1.80
2022-10-23T07:45:14.134Z,1.80
2022-10-23T07:47:41.466Z,1.60
2022-10-23T07:50:09.070Z,1.70
2022-10-23T07:52:36.398Z,1.30
2022-10-23T07:55:03.729Z,1.40
2022-10-23T07:57:30.754Z,1.55
2022-10-23T07:59:57.817Z,1.63
2022-10-23T08:02:24.942Z,1.73
2022-10-23T08:04:52.086Z,1.50
2022-10-23T08:07:19.225Z,1.63
2022-10-23T08:09:46.222Z,1.65
2022-10-23T08:12:13.206Z,1.50
2022-10-23T08:14:40.245Z,1.63
2022-10-23T08:17:09.595Z,1.63
2022-10-23T08:19:36.989Z,1.35
2022-10-23T08:22:04.108Z,2.00
2022-10-23T08:24:31.082Z,1.45
2022-10-23T08:26:58.647Z,1.85
2022-10-23T08:29:25.729Z,1.45
2022-10-23T08:31:55.894Z,1.33
2022-10-23T08:34:23.042Z,1.30
2022-10-23T08:36:50.332Z,1.00
2022-10-23T08:39:17.357Z,3.28
2022-10-23T08:41:48.357Z,1.67
2022-10-23T08:44:20.359Z,1.30
2022-10-23T08:46:48.758Z,1.17
2022-10-23T08:49:21.320Z,1.58
2022-10-23T08:51:50.827Z,1.33
2022-10-23T08:54:17.817Z,1.48
2022-10-23T08:56:50.211Z,1.13
2022-10-23T08:59:25.038Z,1.15
2022-10-23T09:02:03.318Z,1.15
2022-10-23T09:04:30.797Z,1.10
2022-10-23T09:07:07.013Z,1.88
2022-10-23T09:09:33.971Z,1.60
2022-10-23T09:12:07.429Z,1.77
2022-10-23T09:14:41.228Z,1.40
2022-10-23T09:19:42.152Z,1.50
2022-10-23T09:22:10.212Z,1.60
2022-10-23T09:24:37.224Z,1.25
2022-10-23T09:29:35.777Z,1.45
2022-10-23T09:32:04.707Z,1.25
2022-10-23T09:34:32.970Z,1.30
2022-10-23T09:37:04.444Z,1.48
2022-10-23T09:39:32.767Z,1.65
2022-10-23T09:42:02.291Z,1.08
2022-10-23T09:44:30.646Z,1.08
2022-10-23T09:47:01.912Z,1.30
2022-10-23T09:49:29.959Z,1.30
2022-10-23T09:52:01.523Z,1.20
2022-10-23T09:54:29.647Z,1.00
2022-10-23T09:56:58.186Z,1.15
2022-10-23T09:59:30.029Z,1.00
2022-10-23T10:02:04.484Z,1.15
2022-10-23T10:04:35.890Z,0.85
2022-10-23T10:07:03.624Z,0.93
2022-10-23T10:09:30.715Z,1.23
2022-10-23T10:12:00.508Z,1.20
2022-10-23T10:14:30.507Z,0.93
2022-10-23T10:17:02.415Z,0.95
2022-10-23T10:19:41.037Z,1.10
2022-10-23T10:22:18.227Z,1.13
2022-10-23T10:24:56.272Z,1.00
2022-10-23T10:27:29.361Z,1.30
2022-10-23T10:30:02.324Z,1.20
2022-10-23T10:32:32.255Z,1.20
2022-10-23T10:35:17.878Z,1.10
2022-10-23T10:37:51.359Z,1.45
2022-10-23T10:40:18.504Z,1.05
2022-10-23T10:42:58.539Z,1.23
2022-10-23T10:45:38.972Z,0.80
2022-10-23T10:48:12.713Z,1.00
2022-10-23T10:50:54.584Z,1.40
2022-10-23T10:53:46.051Z,0.95
2022-10-23T10:56:15.403Z,1.27
2022-10-23T10:58:46.040Z,1.15
2022-10-23T11:01:36.221Z,1.38
2022-10-23T11:04:03.282Z,1.10
2022-10-23T11:06:32.112Z,0.95
2022-10-23T11:09:19.762Z,1.38
2022-10-23T11:11:48.559Z,0.90
2022-10-23T11:14:20.743Z,2.40
2022-10-23T11:16:50.335Z,1.52
2022-10-23T11:19:23.435Z,1.20
2022-10-23T11:21:56.967Z,1.20
2022-10-23T11:24:39.481Z,1.00
2022-10-23T11:27:19.024Z,1.45
2022-10-23T11:29:58.368Z,0.85
2022-10-23T11:32:51.433Z,0.90
2022-10-23T11:35:37.358Z,1.27
2022-10-23T11:38:13.632Z,1.10
2022-10-23T11:40:54.330Z,1.40
2022-10-23T11:43:28.405Z,1.25
2022-10-23T11:45:55.470Z,1.17
2022-10-23T11:48:24.812Z,1.27
2022-10-23T11:50:54.779Z,1.00
2022-10-23T11:53:26.492Z,0.88
2022-10-23T11:56:05.167Z,0.90
2022-10-23T11:58:48.701Z,1.67
2022-10-23T12:01:19.344Z,3.72
2022-10-23T12:03:51.735Z,2.40
2022-10-23T12:06:25.176Z,1.20
2022-10-23T12:08:54.290Z,1.75
2022-10-23T12:11:42.163Z,1.48
2022-10-23T12:14:27.977Z,1.27
2022-10-23T12:16:55.108Z,0.95
2022-10-23T12:19:23.155Z,1.17
2022-10-23T12:21:54.218Z,1.08
2022-10-23T12:24:56.963Z,1.25
2022-10-23T12:27:23.930Z,1.30
2022-10-23T12:30:09.361Z,1.35
2022-10-23T12:32:55.245Z,1.23
2022-10-23T12:35:28.229Z,0.95
2022-10-23T12:37:58.742Z,1.03
2022-10-23T12:40:30.194Z,1.17
2022-10-23T12:42:58.334Z,1.17
2022-10-23T12:45:25.462Z,1.35
2022-10-23T12:47:53.021Z,1.00
2022-10-23T12:50:22.596Z,1.50
2022-10-23T12:53:08.236Z,1.35
2022-10-23T12:55:54.651Z,1.42
2022-10-23T12:58:25.932Z,1.38
2022-10-23T13:00:57.643Z,1.67
2022-10-23T13:03:25.603Z,1.17
2022-10-23T13:05:53.592Z,1.70
2022-10-23T13:08:21.714Z,1.63
2022-10-23T13:10:49.518Z,1.38
2022-10-23T13:13:20.605Z,1.85
2022-10-23T13:15:47.729Z,1.50
2022-10-23T13:18:15.740Z,1.30
2022-10-23T13:20:44.384Z,1.33
2022-10-23T13:23:13.310Z,1.08
2022-10-23T13:25:40.846Z,1.55
2022-10-23T13:28:13.704Z,1.23
2022-10-23T13:30:42.987Z,1.50
2022-10-23T13:33:16.244Z,1.42
2022-10-23T13:35:43.700Z,1.20
2022-10-23T13:38:10.987Z,1.58
2022-10-23T13:40:38.121Z,0.85
2022-10-23T13:43:13.534Z,1.70
2022-10-23T13:45:41.428Z,1.60
2022-10-23T13:48:13.614Z,1.92
2022-10-23T13:50:40.251Z,1.15
2022-10-23T13:53:11.983Z,1.10
2022-10-23T13:55:40.416Z,1.40
2022-10-23T13:58:07.424Z,1.20
2022-10-23T14:00:34.448Z,1.60
2022-10-23T14:03:01.482Z,1.50
2022-10-23T14:05:28.502Z,1.40
2022-10-23T14:07:55.669Z,1.35
2022-10-23T14:10:25.652Z,1.15
2022-10-23T14:12:54.972Z,1.60
2022-10-23T14:15:22.337Z,1.67
2022-10-23T14:17:49.057Z,1.92
2022-10-23T14:20:17.398Z,1.00
2022-10-23T14:22:46.091Z,1.30
2022-10-23T14:25:13.473Z,1.55
2022-10-23T14:27:40.070Z,1.50
2022-10-23T14:30:07.449Z,1.48
2022-10-23T14:32:34.084Z,1.30
2022-10-23T14:35:03.705Z,1.60
2022-10-23T14:37:34.636Z,1.83
2022-10-23T14:40:01.238Z,1.55
2022-10-23T14:42:34.004Z,1.67
2022-10-23T14:45:02.529Z,1.80
2022-10-23T14:47:29.196Z,1.52
2022-10-23T14:49:56.575Z,1.65
2022-10-23T14:52:24.508Z,1.52
2022-10-23T14:54:53.106Z,1.75
2022-10-23T14:57:21.722Z,1.50
2022-10-23T14:59:49.571Z,1.70
2022-10-23T15:02:16.961Z,1.60
2022-10-23T15:04:44.030Z,1.88
2022-10-23T15:07:11.133Z,2.13
2022-10-23T15:09:39.542Z,1.70
2022-10-23T15:12:07.639Z,1.70
2022-10-23T15:14:34.581Z,1.67
2022-10-23T15:17:01.272Z,1.90
2022-10-23T15:19:27.893Z,1.58
2022-10-23T15:21:54.932Z,1.60
2022-10-23T15:24:22.027Z,1.85
2022-10-23T15:26:49.979Z,1.55
2022-10-23T15:29:17.005Z,1.42
2022-10-23T15:31:51.764Z,1.60
2022-10-23T15:34:21.622Z,2.63
2022-10-23T15:36:49.379Z,2.38
2022-10-23T15:39:18.110Z,1.60
2022-10-23T15:41:45.235Z,1.20
2022-10-23T15:44:14.092Z,1.98
2022-10-23T15:46:41.513Z,2.33
2022-10-23T15:49:09.677Z,1.88
2022-10-23T15:51:37.608Z,1.63
2022-10-23T15:54:05.906Z,1.40
2022-10-23T15:56:33.849Z,1.88
2022-10-23T15:59:01.278Z,2.13
2022-10-23T16:01:28.548Z,1.70
2022-10-23T16:03:55.645Z,1.58
2022-10-23T16:06:23.620Z,2.05
2022-10-23T16:08:50.707Z,1.80
2022-10-23T16:11:28.379Z,1.75
2022-10-23T16:13:56.203Z,1.60
2022-10-23T16:16:23.264Z,2.10
2022-10-23T16:18:50.313Z,2.35
2022-10-23T16:21:27.613Z,2.05
2022-10-23T16:23:56.167Z,2.00
2022-10-23T16:26:23.328Z,2.05
2022-10-23T16:28:57.404Z,1.90
2022-10-23T16:31:25.044Z,2.17
2022-10-23T16:33:52.609Z,2.40
2022-10-23T16:36:19.771Z,1.80
2022-10-23T16:38:46.850Z,2.17
2022-10-23T16:41:13.927Z,1.83
2022-10-23T16:43:40.945Z,2.00
2022-10-23T16:46:09.560Z,1.73
2022-10-23T16:48:36.551Z,1.67
2022-10-23T16:51:11.304Z,1.70
2022-10-23T16:53:38.399Z,2.50
2022-10-23T16:56:07.157Z,1.92
2022-10-23T16:58:34.189Z,1.77
2022-10-23T17:01:03.148Z,2.08
2022-10-23T17:03:30.786Z,2.08
2022-10-23T17:06:01.671Z,2.22
2022-10-23T17:08:29.440Z,2.08
2022-10-23T17:11:05.594Z,2.10
2022-10-23T17:13:33.120Z,2.13
2022-10-23T17:16:03.792Z,2.22
2022-10-23T17:18:30.806Z,2.00
2022-10-23T17:20:59.567Z,2.28
2022-10-23T17:23:26.775Z,2.20
2022-10-23T17:25:54.119Z,2.33
2022-10-23T17:28:21.269Z,2.65
2022-10-23T17:30:48.408Z,2.53
2022-10-23T17:33:15.761Z,2.10
2022-10-23T17:35:45.128Z,2.40
2022-10-23T17:38:12.658Z,2.35
2022-10-23T17:40:40.145Z,2.20
2022-10-23T17:43:07.162Z,1.90
2022-10-23T17:45:35.666Z,2.30
2022-10-23T17:48:02.681Z,2.20
2022-10-23T17:50:29.721Z,2.08
2022-10-23T17:52:56.793Z,2.50
2022-10-23T17:55:23.840Z,2.30
2022-10-23T17:57:50.864Z,2.30
2022-10-23T18:00:18.053Z,2.22
2022-10-23T18:02:46.087Z,2.50
2022-10-23T18:05:13.157Z,1.98
2022-10-23T18:07:39.795Z,2.35
2022-10-23T18:10:06.762Z,2.67
2022-10-23T18:12:33.431Z,2.08
2022-10-23T18:15:01.225Z,2.42
2022-10-23T18:17:27.779Z,2.60
2022-10-23T18:19:58.341Z,3.17
2022-10-23T18:22:29.262Z,2.78
2022-10-23T18:24:56.050Z,2.58
2022-10-23T18:27:22.629Z,3.05
2022-10-23T18:29:50.410Z,2.22
2022-10-23T18:32:17.045Z,2.83
2022-10-23T18:34:43.647Z,2.58
2022-10-23T18:37:10.203Z,1.92
2022-10-23T18:39:36.768Z,2.90
2022-10-23T18:42:03.457Z,2.53
2022-10-23T18:44:30.476Z,2.33
2022-10-23T18:46:58.520Z,2.70
2022-10-23T18:49:25.814Z,2.55
2022-10-23T18:51:52.883Z,2.75
2022-10-23T18:54:20.928Z,2.97
2022-10-23T18:56:48.033Z,3.30
2022-10-23T18:59:16.821Z,3.03
2022-10-23T19:01:44.240Z,2.72
2022-10-23T19:04:16.168Z,2.83
2022-10-23T19:06:43.422Z,2.97
2022-10-23T19:09:11.532Z,3.88
2022-10-23T19:11:38.971Z,3.28
2022-10-23T19:14:06.255Z,3.58
2022-10-23T19:16:39.169Z,3.92
2022-10-23T19:19:10.869Z,2.95
2022-10-23T19:21:38.922Z,4.03
2022-10-23T19:24:07.660Z,4.07
2022-10-23T19:26:36.214Z,4.80
2022-10-23T19:29:03.695Z,4.32
2022-10-23T19:31:31.142Z,4.97
2022-10-23T19:33:58.109Z,4.50
2022-10-23T19:36:25.178Z,5.00
2022-10-23T19:38:52.317Z,4.50
2022-10-23T19:41:19.343Z,4.70
2022-10-23T19:43:46.394Z,5.35
2022-10-23T19:46:13.435Z,4.35
2022-10-23T19:48:44.908Z,3.85
2022-10-23T19:51:13.201Z,4.03
2022-10-23T19:53:41.184Z,4.00
2022-10-23T19:56:09.078Z,4.60
2022-10-23T19:58:36.131Z,4.50
2022-10-23T20:01:13.469Z,4.85
2022-10-23T20:03:41.173Z,4.10
2022-10-23T20:06:09.061Z,4.45
2022-10-23T20:08:36.101Z,3.92
2022-10-23T20:11:03.466Z,4.40
2022-10-23T20:13:30.493Z,5.15
2022-10-23T20:15:57.694Z,5.28
2022-10-23T20:18:25.824Z,4.55
2022-10-23T20:20:53.196Z,5.15
2022-10-23T20:23:20.238Z,5.18
2022-10-23T20:25:47.298Z,4.35
2022-10-23T20:28:15.265Z,5.03
2022-10-23T20:30:44.347Z,5.15
2022-10-23T20:33:11.763Z,6.32
2022-10-23T20:35:42.374Z,5.68
2022-10-23T20:38:09.499Z,4.85
2022-10-23T20:40:36.565Z,4.85
2022-10-23T20:43:03.588Z,4.75
2022-10-23T20:45:30.601Z,5.35
2022-10-23T20:47:57.811Z,5.05
2022-10-23T20:50:24.938Z,6.03
2022-10-23T20:52:52.270Z,5.40
2022-10-23T20:55:19.673Z,4.32
2022-10-23T20:57:47.101Z,4.43
2022-10-23T21:00:15.506Z,4.93
2022-10-23T21:02:45.796Z,4.30
2022-10-23T21:05:14.299Z,4.47
2022-10-23T21:07:41.294Z,4.57
2022-10-23T21:10:08.478Z,4.22
2022-10-23T21:12:35.498Z,5.00
2022-10-23T21:15:02.492Z,3.88
2022-10-23T21:17:35.112Z,4.13
2022-10-23T21:20:02.191Z,4.72
2022-10-23T21:22:29.224Z,4.03
2022-10-23T21:24:58.253Z,3.70
2022-10-23T21:27:25.291Z,4.13
2022-10-23T21:29:52.307Z,3.20
2022-10-23T21:32:20.234Z,3.33
2022-10-23T21:34:47.206Z,4.35
2022-10-23T21:37:14.972Z,3.47
2022-10-23T21:39:43.080Z,3.65
2022-10-23T21:42:10.176Z,3.67
2022-10-23T21:44:37.289Z,3.60
2022-10-23T21:47:04.339Z,3.20
2022-10-23T21:49:31.319Z,3.58
2022-10-23T21:51:58.419Z,4.40
2022-10-23T21:54:25.455Z,4.93
2022-10-23T21:56:55.997Z,3.72
2022-10-23T21:59:24.808Z,3.70
2022-10-23T22:01:53.337Z,3.95
2022-10-23T22:04:20.660Z,3.75
2022-10-23T22:06:49.512Z,4.15
2022-10-23T22:09:19.067Z,3.95
2022-10-23T22:11:46.136Z,2.72
2022-10-23T22:14:13.178Z,3.20
2022-10-23T22:16:41.856Z,3.67
2022-10-23T22:19:10.617Z,3.45
2022-10-23T22:21:37.601Z,3.75
2022-10-23T22:26:37.964Z,3.17
2022-10-23T22:29:06.519Z,2.38
2022-10-23T22:31:34.343Z,2.88
2022-10-23T22:34:13.104Z,2.67
2022-10-23T22:36:48.997Z,2.70
2022-10-23T22:39:16.227Z,2.70
2022-10-23T22:41:43.663Z,3.65
2022-10-23T22:44:14.671Z,2.78
2022-10-23T22:46:42.167Z,2.85
2022-10-23T22:49:09.193Z,3.45
2022-10-23T22:51:37.558Z,2.88
2022-10-23T22:54:04.626Z,3.30
2022-10-23T22:56:31.963Z,2.58
2022-10-23T22:58:59.015Z,2.42
2022-10-23T23:01:33.691Z,2.78
2022-10-23T23:04:08.884Z,2.30
2022-10-23T23:06:46.668Z,2.95
2022-10-23T23:09:17.078Z,3.40
2022-10-23T23:11:51.817Z,3.38
2022-10-23T23:14:23.071Z,2.35
2022-10-23T23:16:51.588Z,3.03
2022-10-23T23:19:18.614Z,3.15
2022-10-23T23:21:45.709Z,2.88
2022-10-23T23:24:15.370Z,2.70
2022-10-23T23:26:42.409Z,2.58
2022-10-23T23:29:09.418Z,2.38
2022-10-23T23:31:36.465Z,2.55
2022-10-23T23:34:03.525Z,2.53
2022-10-23T23:36:30.742Z,2.33
2022-10-23T23:38:58.288Z,2.60
2022-10-23T23:41:25.933Z,3.08
2022-10-23T23:43:54.028Z,2.13
2022-10-23T23:46:21.006Z,2.08
2022-10-23T23:48:49.405Z,2.90
2022-10-23T23:51:17.676Z,2.40
2022-10-23T23:53:44.859Z,1.98
2022-10-23T23:56:11.930Z,2.45
2022-10-23T23:58:38.981Z,2.00
